Terminal Aerodrome Forecast
Issued by NWS Mt. Holly, NJ

Home | Current Version | Previous Version | Text Only | Print | Product List | Glossary On
Versions: 1 2 3 4 5 6 7 8 9 10 11 12 13 14 15 16 17 18 19 20 21 22 23 24 25 26 27 28 29 30 31 32 33 34 35 36 37 38 39 40 41 42 43 44
000
FTAK31 PANC 252336
TAFABE
TAF
PABE 252336Z 2600/2624 19014KT P6SM VCSH OVC006
      TEMPO 2600/2604 2SM -SHSN OVC004
     FM260900 22008KT P6SM VCSH SCT006 OVC012
     FM261500 30009KT P6SM VCSH SCT012 BKN020
     FM262000 23007KT P6SM SCT025 BKN035=

USA.gov is the U.S. government's official web portal to all federal, state and local government web resources and services.